sensor_id;sensor_type;location;lat;lon;timestamp;temperature;humidity
36374;DHT22;22399;51.346;12.372;2023-06-10T00:00:49;18.60;74.00
36374;DHT22;22399;51.346;12.372;2023-06-10T00:03:19;18.60;74.20
36374;DHT22;22399;51.346;12.372;2023-06-10T00:05:52;18.60;74.30
36374;DHT22;22399;51.346;12.372;2023-06-10T00:08:20;18.50;74.50
36374;DHT22;22399;51.346;12.372;2023-06-10T00:10:48;18.50;74.60
36374;DHT22;22399;51.346;12.372;2023-06-10T00:13:17;18.40;74.80
36374;DHT22;22399;51.346;12.372;2023-06-10T00:15:45;18.40;74.90
36374;DHT22;22399;51.346;12.372;2023-06-10T00:18:14;18.40;75.10
36374;DHT22;22399;51.346;12.372;2023-06-10T00:20:44;18.20;75.10
36374;DHT22;22399;51.346;12.372;2023-06-10T00:23:15;18.20;75.40
36374;DHT22;22399;51.346;12.372;2023-06-10T00:25:43;18.10;75.70
36374;DHT22;22399;51.346;12.372;2023-06-10T00:28:12;18.10;75.80
36374;DHT22;22399;51.346;12.372;2023-06-10T00:30:40;18.00;75.90
36374;DHT22;22399;51.346;12.372;2023-06-10T00:33:09;17.90;76.10
36374;DHT22;22399;51.346;12.372;2023-06-10T00:35:38;18.00;76.30
36374;DHT22;22399;51.346;12.372;2023-06-10T00:38:07;17.80;76.40
36374;DHT22;22399;51.346;12.372;2023-06-10T00:40:40;17.80;76.60
36374;DHT22;22399;51.346;12.372;2023-06-10T00:43:09;17.80;76.90
36374;DHT22;22399;51.346;12.372;2023-06-10T00:45:37;17.70;76.90
36374;DHT22;22399;51.346;12.372;2023-06-10T00:48:06;17.70;77.80
36374;DHT22;22399;51.346;12.372;2023-06-10T00:50:36;17.60;77.10
36374;DHT22;22399;51.346;12.372;2023-06-10T00:53:11;17.60;77.30
36374;DHT22;22399;51.346;12.372;2023-06-10T00:55:41;17.50;77.40
36374;DHT22;22399;51.346;12.372;2023-06-10T00:58:10;17.50;77.60
36374;DHT22;22399;51.346;12.372;2023-06-10T01:00:39;17.40;77.80
36374;DHT22;22399;51.346;12.372;2023-06-10T01:03:08;17.40;77.90
36374;DHT22;22399;51.346;12.372;2023-06-10T01:05:37;17.30;78.10
36374;DHT22;22399;51.346;12.372;2023-06-10T01:08:09;17.30;78.30
36374;DHT22;22399;51.346;12.372;2023-06-10T01:10:47;17.30;78.60
36374;DHT22;22399;51.346;12.372;2023-06-10T01:13:20;17.30;78.80
36374;DHT22;22399;51.346;12.372;2023-06-10T01:15:51;17.20;78.80
36374;DHT22;22399;51.346;12.372;2023-06-10T01:18:20;17.10;78.90
36374;DHT22;22399;51.346;12.372;2023-06-10T01:20:49;17.10;79.00
36374;DHT22;22399;51.346;12.372;2023-06-10T01:23:20;17.00;79.20
36374;DHT22;22399;51.346;12.372;2023-06-10T01:25:52;17.00;79.40
36374;DHT22;22399;51.346;12.372;2023-06-10T01:28:27;17.00;79.70
36374;DHT22;22399;51.346;12.372;2023-06-10T01:31:04;17.00;79.80
36374;DHT22;22399;51.346;12.372;2023-06-10T01:33:37;16.90;79.90
36374;DHT22;22399;51.346;12.372;2023-06-10T01:36:07;16.90;80.00
36374;DHT22;22399;51.346;12.372;2023-06-10T01:38:40;16.80;80.10
36374;DHT22;22399;51.346;12.372;2023-06-10T01:41:11;16.80;80.40
36374;DHT22;22399;51.346;12.372;2023-06-10T01:43:40;16.80;80.60
36374;DHT22;22399;51.346;12.372;2023-06-10T01:46:11;16.80;80.70
36374;DHT22;22399;51.346;12.372;2023-06-10T01:48:42;16.70;80.90
36374;DHT22;22399;51.346;12.372;2023-06-10T01:51:10;16.70;81.20
36374;DHT22;22399;51.346;12.372;2023-06-10T01:53:40;16.70;81.30
36374;DHT22;22399;51.346;12.372;2023-06-10T01:56:09;16.70;81.40
36374;DHT22;22399;51.346;12.372;2023-06-10T01:58:44;16.60;81.60
36374;DHT22;22399;51.346;12.372;2023-06-10T02:01:12;16.60;81.70
36374;DHT22;22399;51.346;12.372;2023-06-10T02:03:41;16.60;81.90
36374;DHT22;22399;51.346;12.372;2023-06-10T02:06:10;16.50;82.00
36374;DHT22;22399;51.346;12.372;2023-06-10T02:08:40;16.50;82.20
36374;DHT22;22399;51.346;12.372;2023-06-10T02:11:09;16.40;82.40
36374;DHT22;22399;51.346;12.372;2023-06-10T02:13:38;16.40;82.50
36374;DHT22;22399;51.346;12.372;2023-06-10T02:16:07;16.30;82.80
36374;DHT22;22399;51.346;12.372;2023-06-10T02:18:36;16.20;83.00
36374;DHT22;22399;51.346;12.372;2023-06-10T02:21:07;16.20;83.20
36374;DHT22;22399;51.346;12.372;2023-06-10T02:23:36;16.20;83.60
36374;DHT22;22399;51.346;12.372;2023-06-10T02:26:07;16.10;83.80
36374;DHT22;22399;51.346;12.372;2023-06-10T02:28:35;16.20;84.10
36374;DHT22;22399;51.346;12.372;2023-06-10T02:31:04;16.10;84.30
36374;DHT22;22399;51.346;12.372;2023-06-10T02:33:32;16.10;84.60
36374;DHT22;22399;51.346;12.372;2023-06-10T02:36:02;16.00;84.70
36374;DHT22;22399;51.346;12.372;2023-06-10T02:38:31;16.10;85.00
36374;DHT22;22399;51.346;12.372;2023-06-10T02:41:00;16.00;85.30
36374;DHT22;22399;51.346;12.372;2023-06-10T02:43:30;16.00;85.60
36374;DHT22;22399;51.346;12.372;2023-06-10T02:45:59;16.00;85.80
36374;DHT22;22399;51.346;12.372;2023-06-10T02:48:28;16.00;86.10
36374;DHT22;22399;51.346;12.372;2023-06-10T02:50:57;15.90;86.40
36374;DHT22;22399;51.346;12.372;2023-06-10T02:53:37;16.00;86.90
36374;DHT22;22399;51.346;12.372;2023-06-10T02:56:09;15.90;87.00
36374;DHT22;22399;51.346;12.372;2023-06-10T02:58:41;15.90;87.30
36374;DHT22;22399;51.346;12.372;2023-06-10T03:01:12;15.90;87.70
36374;DHT22;22399;51.346;12.372;2023-06-10T03:03:49;15.90;88.00
36374;DHT22;22399;51.346;12.372;2023-06-10T03:06:18;15.90;88.30
36374;DHT22;22399;51.346;12.372;2023-06-10T03:08:47;15.80;88.70
36374;DHT22;22399;51.346;12.372;2023-06-10T03:11:18;15.80;89.20
36374;DHT22;22399;51.346;12.372;2023-06-10T03:13:50;15.70;89.50
36374;DHT22;22399;51.346;12.372;2023-06-10T03:16:18;15.80;90.00
36374;DHT22;22399;51.346;12.372;2023-06-10T03:18:48;15.80;90.10
36374;DHT22;22399;51.346;12.372;2023-06-10T03:21:17;15.70;90.30
36374;DHT22;22399;51.346;12.372;2023-06-10T03:23:45;15.70;90.50
36374;DHT22;22399;51.346;12.372;2023-06-10T03:26:14;15.70;90.60
36374;DHT22;22399;51.346;12.372;2023-06-10T03:28:45;15.70;90.80
36374;DHT22;22399;51.346;12.372;2023-06-10T03:31:15;15.70;90.90
36374;DHT22;22399;51.346;12.372;2023-06-10T03:33:44;15.70;91.10
36374;DHT22;22399;51.346;12.372;2023-06-10T03:36:13;15.60;91.20
36374;DHT22;22399;51.346;12.372;2023-06-10T03:38:42;15.60;91.50
36374;DHT22;22399;51.346;12.372;2023-06-10T03:41:10;15.60;91.80
36374;DHT22;22399;51.346;12.372;2023-06-10T03:43:41;15.60;92.10
36374;DHT22;22399;51.346;12.372;2023-06-10T03:46:09;15.50;92.30
36374;DHT22;22399;51.346;12.372;2023-06-10T03:48:40;15.50;92.50
36374;DHT22;22399;51.346;12.372;2023-06-10T03:51:08;15.60;93.00
36374;DHT22;22399;51.346;12.372;2023-06-10T03:53:37;15.70;93.20
36374;DHT22;22399;51.346;12.372;2023-06-10T03:56:06;15.70;93.40
36374;DHT22;22399;51.346;12.372;2023-06-10T03:58:35;15.80;93.50
36374;DHT22;22399;51.346;12.372;2023-06-10T04:01:04;15.80;93.60
36374;DHT22;22399;51.346;12.372;2023-06-10T04:03:34;15.70;93.80
36374;DHT22;22399;51.346;12.372;2023-06-10T04:06:05;15.80;94.10
36374;DHT22;22399;51.346;12.372;2023-06-10T04:08:33;15.80;94.30
36374;DHT22;22399;51.346;12.372;2023-06-10T04:11:03;15.80;94.40
36374;DHT22;22399;51.346;12.372;2023-06-10T04:13:31;15.80;94.60
36374;DHT22;22399;51.346;12.372;2023-06-10T04:16:00;15.90;94.90
36374;DHT22;22399;51.346;12.372;2023-06-10T04:18:29;15.90;95.00
36374;DHT22;22399;51.346;12.372;2023-06-10T04:21:04;15.90;95.10
36374;DHT22;22399;51.346;12.372;2023-06-10T04:23:33;15.90;95.20
36374;DHT22;22399;51.346;12.372;2023-06-10T04:26:02;15.90;95.60
36374;DHT22;22399;51.346;12.372;2023-06-10T04:28:30;16.00;95.70
36374;DHT22;22399;51.346;12.372;2023-06-10T04:30:59;16.20;95.80
36374;DHT22;22399;51.346;12.372;2023-06-10T04:33:28;16.30;95.70
36374;DHT22;22399;51.346;12.372;2023-06-10T04:35:58;16.50;95.70
36374;DHT22;22399;51.346;12.372;2023-06-10T04:38:30;16.70;95.20
36374;DHT22;22399;51.346;12.372;2023-06-10T04:40:59;16.70;95.20
36374;DHT22;22399;51.346;12.372;2023-06-10T04:43:31;16.80;95.10
36374;DHT22;22399;51.346;12.372;2023-06-10T04:46:00;16.90;95.10
36374;DHT22;22399;51.346;12.372;2023-06-10T04:48:29;17.00;95.00
36374;DHT22;22399;51.346;12.372;2023-06-10T04:50:58;17.20;94.90
36374;DHT22;22399;51.346;12.372;2023-06-10T04:53:27;17.20;94.50
36374;DHT22;22399;51.346;12.372;2023-06-10T04:55:58;17.30;94.80
36374;DHT22;22399;51.346;12.372;2023-06-10T04:58:26;17.40;94.60
36374;DHT22;22399;51.346;12.372;2023-06-10T05:00:55;17.30;94.40
36374;DHT22;22399;51.346;12.372;2023-06-10T05:03:23;17.10;94.60
36374;DHT22;22399;51.346;12.372;2023-06-10T05:05:52;17.00;95.10
36374;DHT22;22399;51.346;12.372;2023-06-10T05:08:20;16.90;95.30
36374;DHT22;22399;51.346;12.372;2023-06-10T05:10:48;16.80;95.60
36374;DHT22;22399;51.346;12.372;2023-06-10T05:13:18;16.70;96.00
36374;DHT22;22399;51.346;12.372;2023-06-10T05:15:47;16.60;96.50
36374;DHT22;22399;51.346;12.372;2023-06-10T05:18:15;16.60;96.60
36374;DHT22;22399;51.346;12.372;2023-06-10T05:20:43;16.60;96.90
36374;DHT22;22399;51.346;12.372;2023-06-10T05:23:12;16.70;97.30
36374;DHT22;22399;51.346;12.372;2023-06-10T05:25:40;16.70;97.40
36374;DHT22;22399;51.346;12.372;2023-06-10T05:28:09;16.80;97.40
36374;DHT22;22399;51.346;12.372;2023-06-10T05:30:43;16.80;97.60
36374;DHT22;22399;51.346;12.372;2023-06-10T05:33:11;17.00;97.90
36374;DHT22;22399;51.346;12.372;2023-06-10T05:35:39;17.40;97.50
36374;DHT22;22399;51.346;12.372;2023-06-10T05:38:08;17.80;96.70
36374;DHT22;22399;51.346;12.372;2023-06-10T05:40:36;18.10;96.00
36374;DHT22;22399;51.346;12.372;2023-06-10T05:43:05;18.20;95.60
36374;DHT22;22399;51.346;12.372;2023-06-10T05:45:33;18.60;96.20
36374;DHT22;22399;51.346;12.372;2023-06-10T05:48:04;19.40;98.10
36374;DHT22;22399;51.346;12.372;2023-06-10T05:50:33;20.90;97.00
36374;DHT22;22399;51.346;12.372;2023-06-10T05:53:05;22.20;93.50
36374;DHT22;22399;51.346;12.372;2023-06-10T05:55:35;22.80;91.30
36374;DHT22;22399;51.346;12.372;2023-06-10T05:58:03;23.10;88.80
36374;DHT22;22399;51.346;12.372;2023-06-10T06:00:31;23.10;87.50
36374;DHT22;22399;51.346;12.372;2023-06-10T06:03:06;23.30;86.90
36374;DHT22;22399;51.346;12.372;2023-06-10T06:05:36;24.10;85.60
36374;DHT22;22399;51.346;12.372;2023-06-10T06:08:06;24.90;82.30
36374;DHT22;22399;51.346;12.372;2023-06-10T06:10:34;25.10;80.30
36374;DHT22;22399;51.346;12.372;2023-06-10T06:13:03;25.30;78.90
36374;DHT22;22399;51.346;12.372;2023-06-10T06:15:31;25.70;78.20
36374;DHT22;22399;51.346;12.372;2023-06-10T06:18:00;25.90;76.40
36374;DHT22;22399;51.346;12.372;2023-06-10T06:20:30;25.60;76.80
36374;DHT22;22399;51.346;12.372;2023-06-10T06:22:59;25.70;76.80
36374;DHT22;22399;51.346;12.372;2023-06-10T06:25:27;26.20;75.90
36374;DHT22;22399;51.346;12.372;2023-06-10T06:27:56;26.30;74.30
36374;DHT22;22399;51.346;12.372;2023-06-10T06:30:24;26.20;74.40
36374;DHT22;22399;51.346;12.372;2023-06-10T06:32:53;26.40;74.40
36374;DHT22;22399;51.346;12.372;2023-06-10T06:35:22;26.60;73.20
36374;DHT22;22399;51.346;12.372;2023-06-10T06:37:52;26.50;73.50
36374;DHT22;22399;51.346;12.372;2023-06-10T06:40:25;27.00;73.80
36374;DHT22;22399;51.346;12.372;2023-06-10T06:42:53;27.10;72.40
36374;DHT22;22399;51.346;12.372;2023-06-10T06:45:57;27.20;71.60
36374;DHT22;22399;51.346;12.372;2023-06-10T06:48:26;27.30;71.30
36374;DHT22;22399;51.346;12.372;2023-06-10T06:50:55;27.20;72.60
36374;DHT22;22399;51.346;12.372;2023-06-10T06:53:26;27.60;71.50
36374;DHT22;22399;51.346;12.372;2023-06-10T06:56:00;27.60;71.40
36374;DHT22;22399;51.346;12.372;2023-06-10T06:58:30;27.70;70.40
36374;DHT22;22399;51.346;12.372;2023-06-10T07:00:58;28.10;70.70
36374;DHT22;22399;51.346;12.372;2023-06-10T07:03:27;28.60;69.50
36374;DHT22;22399;51.346;12.372;2023-06-10T07:05:55;28.50;69.40
36374;DHT22;22399;51.346;12.372;2023-06-10T07:08:23;28.90;69.30
36374;DHT22;22399;51.346;12.372;2023-06-10T07:10:53;29.20;67.80
36374;DHT22;22399;51.346;12.372;2023-06-10T07:13:22;29.20;68.20
36374;DHT22;22399;51.346;12.372;2023-06-10T07:15:50;29.70;67.30
36374;DHT22;22399;51.346;12.372;2023-06-10T07:18:18;29.50;66.30
36374;DHT22;22399;51.346;12.372;2023-06-10T07:20:47;29.50;66.90
36374;DHT22;22399;51.346;12.372;2023-06-10T07:23:15;29.90;66.40
36374;DHT22;22399;51.346;12.372;2023-06-10T07:25:44;29.70;66.80
36374;DHT22;22399;51.346;12.372;2023-06-10T07:28:13;29.60;66.50
36374;DHT22;22399;51.346;12.372;2023-06-10T07:30:42;29.20;66.90
36374;DHT22;22399;51.346;12.372;2023-06-10T07:33:10;29.10;67.10
36374;DHT22;22399;51.346;12.372;2023-06-10T07:35:39;28.80;67.60
36374;DHT22;22399;51.346;12.372;2023-06-10T07:38:10;28.90;67.40
36374;DHT22;22399;51.346;12.372;2023-06-10T07:40:38;29.30;66.90
36374;DHT22;22399;51.346;12.372;2023-06-10T07:43:07;29.60;66.20
36374;DHT22;22399;51.346;12.372;2023-06-10T07:45:37;29.80;65.70
36374;DHT22;22399;51.346;12.372;2023-06-10T07:48:07;30.20;65.70
36374;DHT22;22399;51.346;12.372;2023-06-10T07:50:36;30.60;64.90
36374;DHT22;22399;51.346;12.372;2023-06-10T07:53:04;30.90;63.90
36374;DHT22;22399;51.346;12.372;2023-06-10T07:55:33;30.60;63.50
36374;DHT22;22399;51.346;12.372;2023-06-10T07:58:01;30.40;63.90
36374;DHT22;22399;51.346;12.372;2023-06-10T08:00:30;30.60;64.20
36374;DHT22;22399;51.346;12.372;2023-06-10T08:02:59;30.40;64.30
36374;DHT22;22399;51.346;12.372;2023-06-10T08:05:28;30.70;64.40
36374;DHT22;22399;51.346;12.372;2023-06-10T08:07:56;30.60;63.90
36374;DHT22;22399;51.346;12.372;2023-06-10T08:10:29;30.70;64.10
36374;DHT22;22399;51.346;12.372;2023-06-10T08:12:57;30.60;64.30
36374;DHT22;22399;51.346;12.372;2023-06-10T08:15:26;30.80;63.70
36374;DHT22;22399;51.346;12.372;2023-06-10T08:17:54;31.10;63.10
36374;DHT22;22399;51.346;12.372;2023-06-10T08:20:25;31.20;63.00
36374;DHT22;22399;51.346;12.372;2023-06-10T08:22:54;30.80;63.40
36374;DHT22;22399;51.346;12.372;2023-06-10T08:25:22;30.90;63.60
36374;DHT22;22399;51.346;12.372;2023-06-10T08:27:51;31.20;62.80
36374;DHT22;22399;51.346;12.372;2023-06-10T08:30:19;30.90;62.90
36374;DHT22;22399;51.346;12.372;2023-06-10T08:32:48;30.90;63.20
36374;DHT22;22399;51.346;12.372;2023-06-10T08:35:17;31.10;63.00
36374;DHT22;22399;51.346;12.372;2023-06-10T08:37:47;30.70;62.90
36374;DHT22;22399;51.346;12.372;2023-06-10T08:40:16;30.70;63.30
36374;DHT22;22399;51.346;12.372;2023-06-10T08:42:48;31.00;62.70
36374;DHT22;22399;51.346;12.372;2023-06-10T08:45:18;31.20;62.20
36374;DHT22;22399;51.346;12.372;2023-06-10T08:47:49;31.40;62.20
36374;DHT22;22399;51.346;12.372;2023-06-10T08:50:21;31.20;61.50
36374;DHT22;22399;51.346;12.372;2023-06-10T08:52:54;31.20;62.10
36374;DHT22;22399;51.346;12.372;2023-06-10T08:55:29;31.50;62.00
36374;DHT22;22399;51.346;12.372;2023-06-10T08:57:59;31.50;61.10
36374;DHT22;22399;51.346;12.372;2023-06-10T09:00:31;31.60;61.00
36374;DHT22;22399;51.346;12.372;2023-06-10T09:03:00;31.50;61.10
36374;DHT22;22399;51.346;12.372;2023-06-10T09:05:33;31.30;61.40
36374;DHT22;22399;51.346;12.372;2023-06-10T09:08:06;31.30;61.40
36374;DHT22;22399;51.346;12.372;2023-06-10T09:10:35;31.20;61.50
36374;DHT22;22399;51.346;12.372;2023-06-10T09:13:03;31.40;61.20
36374;DHT22;22399;51.346;12.372;2023-06-10T09:15:32;31.20;61.10
36374;DHT22;22399;51.346;12.372;2023-06-10T09:18:00;31.30;61.40
36374;DHT22;22399;51.346;12.372;2023-06-10T09:20:29;31.70;60.80
36374;DHT22;22399;51.346;12.372;2023-06-10T09:22:59;31.30;60.60
36374;DHT22;22399;51.346;12.372;2023-06-10T09:25:36;30.90;61.20
36374;DHT22;22399;51.346;12.372;2023-06-10T09:28:08;31.10;61.30
36374;DHT22;22399;51.346;12.372;2023-06-10T09:30:40;30.80;60.70
36374;DHT22;22399;51.346;12.372;2023-06-10T09:33:14;30.90;61.00
36374;DHT22;22399;51.346;12.372;2023-06-10T09:35:46;31.30;60.70
36374;DHT22;22399;51.346;12.372;2023-06-10T09:38:19;31.80;59.90
36374;DHT22;22399;51.346;12.372;2023-06-10T09:40:50;31.20;59.80
36374;DHT22;22399;51.346;12.372;2023-06-10T09:43:19;31.20;59.80
36374;DHT22;22399;51.346;12.372;2023-06-10T09:45:48;31.00;59.90
36374;DHT22;22399;51.346;12.372;2023-06-10T09:48:17;31.50;59.60
36374;DHT22;22399;51.346;12.372;2023-06-10T09:50:46;31.50;59.30
36374;DHT22;22399;51.346;12.372;2023-06-10T09:53:17;31.60;58.90
36374;DHT22;22399;51.346;12.372;2023-06-10T09:55:45;31.40;58.90
36374;DHT22;22399;51.346;12.372;2023-06-10T09:58:15;31.20;59.20
36374;DHT22;22399;51.346;12.372;2023-06-10T10:00:48;31.20;59.10
36374;DHT22;22399;51.346;12.372;2023-06-10T10:03:22;30.70;59.30
36374;DHT22;22399;51.346;12.372;2023-06-10T10:05:58;30.50;59.30
36374;DHT22;22399;51.346;12.372;2023-06-10T10:08:27;30.60;59.90
36374;DHT22;22399;51.346;12.372;2023-06-10T10:10:57;30.60;59.10
36374;DHT22;22399;51.346;12.372;2023-06-10T10:13:28;31.00;58.90
36374;DHT22;22399;51.346;12.372;2023-06-10T10:15:59;30.80;58.80
36374;DHT22;22399;51.346;12.372;2023-06-10T10:18:29;30.90;58.40
36374;DHT22;22399;51.346;12.372;2023-06-10T10:21:04;30.80;58.40
36374;DHT22;22399;51.346;12.372;2023-06-10T10:23:38;30.50;58.60
36374;DHT22;22399;51.346;12.372;2023-06-10T10:26:10;30.00;58.40
36374;DHT22;22399;51.346;12.372;2023-06-10T10:28:44;29.90;58.70
36374;DHT22;22399;51.346;12.372;2023-06-10T10:31:16;30.20;58.70
36374;DHT22;22399;51.346;12.372;2023-06-10T10:33:54;30.40;58.10
36374;DHT22;22399;51.346;12.372;2023-06-10T10:36:23;30.60;58.10
36374;DHT22;22399;51.346;12.372;2023-06-10T10:38:53;30.30;57.40
36374;DHT22;22399;51.346;12.372;2023-06-10T10:41:23;30.50;57.80
36374;DHT22;22399;51.346;12.372;2023-06-10T10:43:55;30.40;57.30
36374;DHT22;22399;51.346;12.372;2023-06-10T10:46:24;30.60;57.30
36374;DHT22;22399;51.346;12.372;2023-06-10T10:48:54;30.00;56.70
36374;DHT22;22399;51.346;12.372;2023-06-10T10:51:24;30.20;57.10
36374;DHT22;22399;51.346;12.372;2023-06-10T10:54:12;29.90;57.00
36374;DHT22;22399;51.346;12.372;2023-06-10T10:57:15;30.00;57.00
36374;DHT22;22399;51.346;12.372;2023-06-10T10:59:54;30.10;57.00
36374;DHT22;22399;51.346;12.372;2023-06-10T11:02:35;30.50;56.70
36374;DHT22;22399;51.346;12.372;2023-06-10T11:05:07;30.80;56.20
36374;DHT22;22399;51.346;12.372;2023-06-10T11:07:37;30.90;56.00
36374;DHT22;22399;51.346;12.372;2023-06-10T11:10:10;31.00;55.60
36374;DHT22;22399;51.346;12.372;2023-06-10T11:12:52;31.00;55.70
36374;DHT22;22399;51.346;12.372;2023-06-10T11:15:24;32.00;55.20
36374;DHT22;22399;51.346;12.372;2023-06-10T11:18:09;32.10;54.30
36374;DHT22;22399;51.346;12.372;2023-06-10T11:20:56;32.50;54.00
36374;DHT22;22399;51.346;12.372;2023-06-10T11:26:43;33.40;53.20
36374;DHT22;22399;51.346;12.372;2023-06-10T11:29:14;33.70;52.00
36374;DHT22;22399;51.346;12.372;2023-06-10T11:31:46;32.60;52.00
36374;DHT22;22399;51.346;12.372;2023-06-10T11:34:22;31.80;53.10
36374;DHT22;22399;51.346;12.372;2023-06-10T11:36:52;31.70;53.60
36374;DHT22;22399;51.346;12.372;2023-06-10T11:39:22;31.90;53.50
36374;DHT22;22399;51.346;12.372;2023-06-10T11:41:53;31.90;52.90
36374;DHT22;22399;51.346;12.372;2023-06-10T11:44:27;31.70;53.00
36374;DHT22;22399;51.346;12.372;2023-06-10T11:46:58;31.80;52.90
36374;DHT22;22399;51.346;12.372;2023-06-10T11:49:26;31.40;53.50
36374;DHT22;22399;51.346;12.372;2023-06-10T11:51:55;30.90;53.20
36374;DHT22;22399;51.346;12.372;2023-06-10T11:54:23;30.80;53.60
36374;DHT22;22399;51.346;12.372;2023-06-10T11:56:57;30.50;53.40
36374;DHT22;22399;51.346;12.372;2023-06-10T11:59:27;30.50;53.60
36374;DHT22;22399;51.346;12.372;2023-06-10T12:01:59;31.00;53.50
36374;DHT22;22399;51.346;12.372;2023-06-10T12:04:27;31.60;52.80
36374;DHT22;22399;51.346;12.372;2023-06-10T12:06:56;32.30;52.20
36374;DHT22;22399;51.346;12.372;2023-06-10T12:09:25;32.80;51.60
36374;DHT22;22399;51.346;12.372;2023-06-10T12:11:57;32.40;50.90
36374;DHT22;22399;51.346;12.372;2023-06-10T12:14:50;31.60;51.60
36374;DHT22;22399;51.346;12.372;2023-06-10T12:17:23;30.80;52.20
36374;DHT22;22399;51.346;12.372;2023-06-10T12:19:52;30.30;52.80
36374;DHT22;22399;51.346;12.372;2023-06-10T12:22:21;29.90;53.20
36374;DHT22;22399;51.346;12.372;2023-06-10T12:25:03;29.70;53.60
36374;DHT22;22399;51.346;12.372;2023-06-10T12:27:34;29.80;53.80
36374;DHT22;22399;51.346;12.372;2023-06-10T12:30:05;29.90;53.30
36374;DHT22;22399;51.346;12.372;2023-06-10T12:32:40;30.00;53.00
36374;DHT22;22399;51.346;12.372;2023-06-10T12:35:10;30.80;52.40
36374;DHT22;22399;51.346;12.372;2023-06-10T12:37:40;31.00;51.60
36374;DHT22;22399;51.346;12.372;2023-06-10T12:40:11;31.30;51.50
36374;DHT22;22399;51.346;12.372;2023-06-10T12:42:39;31.90;50.90
36374;DHT22;22399;51.346;12.372;2023-06-10T12:45:09;32.00;50.00
36374;DHT22;22399;51.346;12.372;2023-06-10T12:47:41;31.40;49.90
36374;DHT22;22399;51.346;12.372;2023-06-10T12:50:10;31.40;50.10
36374;DHT22;22399;51.346;12.372;2023-06-10T12:52:40;31.10;50.10
36374;DHT22;22399;51.346;12.372;2023-06-10T12:55:09;30.70;50.50
36374;DHT22;22399;51.346;12.372;2023-06-10T12:57:48;29.60;50.80
36374;DHT22;22399;51.346;12.372;2023-06-10T13:00:18;27.70;52.00
36374;DHT22;22399;51.346;12.372;2023-06-10T13:02:48;24.90;56.40
36374;DHT22;22399;51.346;12.372;2023-06-10T13:05:18;23.20;61.80
36374;DHT22;22399;51.346;12.372;2023-06-10T13:07:48;22.20;67.80
36374;DHT22;22399;51.346;12.372;2023-06-10T13:10:18;21.20;71.80
36374;DHT22;22399;51.346;12.372;2023-06-10T13:12:51;20.50;76.90
36374;DHT22;22399;51.346;12.372;2023-06-10T13:15:22;20.70;81.60
36374;DHT22;22399;51.346;12.372;2023-06-10T13:17:55;20.90;81.90
36374;DHT22;22399;51.346;12.372;2023-06-10T13:20:23;21.20;82.30
36374;DHT22;22399;51.346;12.372;2023-06-10T13:22:53;21.40;84.60
36374;DHT22;22399;51.346;12.372;2023-06-10T13:25:22;21.60;86.40
36374;DHT22;22399;51.346;12.372;2023-06-10T13:27:50;22.00;85.40
36374;DHT22;22399;51.346;12.372;2023-06-10T13:30:19;22.30;80.30
36374;DHT22;22399;51.346;12.372;2023-06-10T13:32:47;22.60;76.30
36374;DHT22;22399;51.346;12.372;2023-06-10T13:35:18;22.80;73.30
36374;DHT22;22399;51.346;12.372;2023-06-10T13:37:46;22.90;71.00
36374;DHT22;22399;51.346;12.372;2023-06-10T13:40:15;22.90;69.10
36374;DHT22;22399;51.346;12.372;2023-06-10T13:42:43;23.00;67.70
36374;DHT22;22399;51.346;12.372;2023-06-10T13:45:13;23.10;66.40
36374;DHT22;22399;51.346;12.372;2023-06-10T13:48:00;23.20;65.30
36374;DHT22;22399;51.346;12.372;2023-06-10T13:50:32;23.50;64.20
36374;DHT22;22399;51.346;12.372;2023-06-10T13:53:00;23.80;63.10
36374;DHT22;22399;51.346;12.372;2023-06-10T13:55:31;24.10;62.50
36374;DHT22;22399;51.346;12.372;2023-06-10T13:57:59;24.30;61.60
36374;DHT22;22399;51.346;12.372;2023-06-10T14:00:28;24.60;60.80
36374;DHT22;22399;51.346;12.372;2023-06-10T14:02:56;25.00;59.70
36374;DHT22;22399;51.346;12.372;2023-06-10T14:05:25;25.70;58.50
36374;DHT22;22399;51.346;12.372;2023-06-10T14:07:59;25.70;58.40
36374;DHT22;22399;51.346;12.372;2023-06-10T14:10:27;25.80;58.20
36374;DHT22;22399;51.346;12.372;2023-06-10T14:12:56;25.90;57.70
36374;DHT22;22399;51.346;12.372;2023-06-10T14:15:24;26.00;57.70
36374;DHT22;22399;51.346;12.372;2023-06-10T14:17:53;26.30;57.30
36374;DHT22;22399;51.346;12.372;2023-06-10T14:20:22;26.70;57.00
36374;DHT22;22399;51.346;12.372;2023-06-10T14:22:52;26.80;56.60
36374;DHT22;22399;51.346;12.372;2023-06-10T14:25:22;26.90;56.20
36374;DHT22;22399;51.346;12.372;2023-06-10T14:27:51;27.00;56.00
36374;DHT22;22399;51.346;12.372;2023-06-10T14:30:19;27.00;55.70
36374;DHT22;22399;51.346;12.372;2023-06-10T14:32:48;27.00;55.50
36374;DHT22;22399;51.346;12.372;2023-06-10T14:35:17;27.10;55.40
36374;DHT22;22399;51.346;12.372;2023-06-10T14:37:45;26.90;56.00
36374;DHT22;22399;51.346;12.372;2023-06-10T14:40:14;26.80;55.20
36374;DHT22;22399;51.346;12.372;2023-06-10T14:42:43;26.80;55.00
36374;DHT22;22399;51.346;12.372;2023-06-10T14:45:12;27.00;54.90
36374;DHT22;22399;51.346;12.372;2023-06-10T14:47:42;26.90;54.40
36374;DHT22;22399;51.346;12.372;2023-06-10T14:50:10;26.80;54.20
36374;DHT22;22399;51.346;12.372;2023-06-10T14:52:39;26.90;54.30
36374;DHT22;22399;51.346;12.372;2023-06-10T14:55:08;27.10;54.20
36374;DHT22;22399;51.346;12.372;2023-06-10T14:57:37;27.00;54.30
36374;DHT22;22399;51.346;12.372;2023-06-10T15:00:08;26.90;54.90
36374;DHT22;22399;51.346;12.372;2023-06-10T15:02:37;26.60;55.50
36374;DHT22;22399;51.346;12.372;2023-06-10T15:05:06;26.50;56.00
36374;DHT22;22399;51.346;12.372;2023-06-10T15:07:40;26.30;56.30
36374;DHT22;22399;51.346;12.372;2023-06-10T15:10:10;26.20;56.80
36374;DHT22;22399;51.346;12.372;2023-06-10T15:12:39;26.10;57.10
36374;DHT22;22399;51.346;12.372;2023-06-10T15:15:10;25.90;57.50
36374;DHT22;22399;51.346;12.372;2023-06-10T15:17:39;25.70;58.20
36374;DHT22;22399;51.346;12.372;2023-06-10T15:20:09;25.60;58.60
36374;DHT22;22399;51.346;12.372;2023-06-10T15:22:38;25.50;59.00
36374;DHT22;22399;51.346;12.372;2023-06-10T15:25:07;25.30;59.50
36374;DHT22;22399;51.346;12.372;2023-06-10T15:27:55;25.20;60.00
36374;DHT22;22399;51.346;12.372;2023-06-10T15:30:25;25.30;60.30
36374;DHT22;22399;51.346;12.372;2023-06-10T15:32:53;25.40;60.60
36374;DHT22;22399;51.346;12.372;2023-06-10T15:35:22;25.50;60.60
36374;DHT22;22399;51.346;12.372;2023-06-10T15:37:50;25.50;60.60